createdAt,value
2018-07-01T00:00:59.070Z,55.60
2018-07-01T00:03:27.382Z,55.80
2018-07-01T00:05:55.691Z,56.00
2018-07-01T00:08:24.022Z,55.90
2018-07-01T00:10:52.346Z,55.10
2018-07-01T00:13:20.694Z,55.00
2018-07-01T00:15:49.126Z,55.10
2018-07-01T00:18:17.684Z,56.20
2018-07-01T00:20:46.203Z,57.40
2018-07-01T00:23:14.667Z,57.50
2018-07-01T00:25:42.388Z,57.50
2018-07-01T00:28:11.733Z,57.60
2018-07-01T00:30:40.102Z,57.10
2018-07-01T00:33:08.471Z,57.00
2018-07-01T00:35:36.777Z,56.70
2018-07-01T00:38:05.110Z,56.90
2018-07-01T00:40:33.423Z,57.50
2018-07-01T00:43:01.758Z,58.00
2018-07-01T00:45:30.074Z,58.60
2018-07-01T00:47:58.409Z,59.00
2018-07-01T00:50:26.732Z,59.30
2018-07-01T00:52:55.095Z,59.30
2018-07-01T00:55:23.414Z,59.00
2018-07-01T00:57:51.753Z,58.60
2018-07-01T01:00:20.131Z,58.00
2018-07-01T01:02:48.492Z,58.10
2018-07-01T01:05:16.868Z,58.60
2018-07-01T01:07:44.590Z,58.50
2018-07-01T01:10:13.082Z,59.30
2018-07-01T01:12:41.618Z,59.40
2018-07-01T01:15:09.952Z,59.40
2018-07-01T01:17:37.529Z,59.30
2018-07-01T01:20:05.840Z,59.60
2018-07-01T01:22:34.177Z,59.80
2018-07-01T01:25:02.502Z,59.80
2018-07-01T01:27:30.065Z,59.80
2018-07-01T01:29:58.371Z,59.70
2018-07-01T01:32:26.717Z,59.70
2018-07-01T01:34:55.028Z,59.50
2018-07-01T01:37:23.356Z,59.60
2018-07-01T01:39:51.702Z,59.70
2018-07-01T01:42:20.098Z,59.70
2018-07-01T01:44:48.498Z,59.80
2018-07-01T01:47:17.005Z,59.80
2018-07-01T01:49:45.532Z,59.70
2018-07-01T01:52:14.069Z,59.70
2018-07-01T01:54:42.513Z,59.70
2018-07-01T01:57:11.613Z,59.70
2018-07-01T01:59:40.052Z,59.70
2018-07-01T02:02:08.384Z,59.80
2018-07-01T02:04:36.712Z,59.90
2018-07-01T02:07:05.026Z,60.00
2018-07-01T02:09:33.369Z,60.10
2018-07-01T02:12:01.683Z,61.00
2018-07-01T02:14:30.014Z,60.20
2018-07-01T02:16:58.334Z,60.10
2018-07-01T02:19:26.678Z,60.30
2018-07-01T02:21:55.700Z,60.60
2018-07-01T02:24:24.038Z,60.70
2018-07-01T02:26:52.349Z,60.50
2018-07-01T02:29:20.700Z,60.20
2018-07-01T02:31:49.114Z,60.20
2018-07-01T02:34:17.464Z,60.50
2018-07-01T02:36:46.001Z,60.50
2018-07-01T02:39:14.462Z,60.40
2018-07-01T02:41:43.002Z,60.80
2018-07-01T02:44:11.397Z,60.40
2018-07-01T02:46:38.986Z,60.40
2018-07-01T02:49:07.319Z,60.10
2018-07-01T02:51:35.641Z,60.00
2018-07-01T02:54:03.977Z,59.90
2018-07-01T02:56:32.297Z,60.10
2018-07-01T02:59:00.632Z,60.50
2018-07-01T03:01:28.939Z,59.90
2018-07-01T03:03:57.275Z,59.80
2018-07-01T03:06:25.593Z,60.10
2018-07-01T03:08:53.934Z,59.80
2018-07-01T03:11:22.253Z,59.80
2018-07-01T03:13:50.593Z,59.90
2018-07-01T03:16:19.063Z,59.50
2018-07-01T03:18:47.533Z,59.70
2018-07-01T03:21:15.981Z,60.30
2018-07-01T03:23:44.554Z,60.00
2018-07-01T03:26:13.001Z,59.80
2018-07-01T03:28:41.645Z,59.40
2018-07-01T03:31:10.003Z,59.00
2018-07-01T03:33:38.344Z,58.80
2018-07-01T03:36:06.657Z,58.60
2018-07-01T03:38:34.990Z,58.40
2018-07-01T03:41:03.329Z,57.80
2018-07-01T03:43:31.661Z,57.80
2018-07-01T03:45:59.982Z,57.40
2018-07-01T03:48:28.313Z,57.00
2018-07-01T03:50:56.628Z,57.50
2018-07-01T03:53:24.977Z,57.70
2018-07-01T03:55:53.293Z,57.30
2018-07-01T03:58:21.608Z,57.00
2018-07-01T04:00:50.024Z,57.20
2018-07-01T04:03:18.518Z,57.20
2018-07-01T04:05:47.045Z,57.20
2018-07-01T04:08:15.468Z,56.50
2018-07-01T04:10:44.066Z,55.00
2018-07-01T04:13:12.562Z,53.50
2018-07-01T04:15:41.111Z,52.40
2018-07-01T04:18:09.446Z,51.40
2018-07-01T04:20:37.840Z,50.40
2018-07-01T04:23:06.152Z,50.30
2018-07-01T04:25:34.551Z,51.10
2018-07-01T04:28:02.868Z,51.80
2018-07-01T04:30:31.212Z,52.60
2018-07-01T04:32:59.529Z,53.40
2018-07-01T04:35:27.867Z,53.80
2018-07-01T04:37:56.181Z,53.10
2018-07-01T04:40:24.523Z,51.60
2018-07-01T04:42:52.828Z,49.40
2018-07-01T04:45:21.173Z,47.50
2018-07-01T04:47:49.562Z,46.00
2018-07-01T04:50:18.085Z,45.50
2018-07-01T04:52:46.525Z,44.90
2018-07-01T04:55:15.140Z,44.00
2018-07-01T04:57:43.514Z,43.60
2018-07-01T05:00:11.935Z,43.40
2018-07-01T05:02:41.135Z,43.10
2018-07-01T05:05:09.535Z,42.80
2018-07-01T05:07:37.897Z,42.40
2018-07-01T05:10:06.222Z,42.10
2018-07-01T05:12:34.537Z,42.30
2018-07-01T05:15:02.877Z,42.60
2018-07-01T05:17:31.216Z,42.30
2018-07-01T05:19:59.560Z,42.80
2018-07-01T05:22:27.872Z,44.00
2018-07-01T05:24:56.211Z,44.50
2018-07-01T05:27:24.523Z,45.20
2018-07-01T05:29:52.859Z,44.90
2018-07-01T05:32:21.184Z,42.30
2018-07-01T05:34:49.570Z,40.90
2018-07-01T05:37:17.920Z,39.60
2018-07-01T05:39:46.347Z,40.30
2018-07-01T05:42:14.760Z,41.10
2018-07-01T05:44:43.438Z,41.10
2018-07-01T05:47:11.887Z,40.90
2018-07-01T05:49:40.355Z,40.60
2018-07-01T05:52:08.694Z,40.40
2018-07-01T05:54:37.023Z,41.00
2018-07-01T05:57:05.389Z,40.90
2018-07-01T05:59:33.698Z,40.30
2018-07-01T06:02:02.039Z,40.30
2018-07-01T06:04:30.344Z,41.00
2018-07-01T06:06:58.683Z,40.60
2018-07-01T06:09:26.994Z,40.60
2018-07-01T06:11:55.335Z,40.00
2018-07-01T06:14:23.661Z,39.90
2018-07-01T06:16:52.113Z,39.70
2018-07-01T06:19:20.337Z,39.40
2018-07-01T06:21:48.693Z,39.60
2018-07-01T06:24:17.053Z,39.90
2018-07-01T06:26:45.414Z,40.40
2018-07-01T06:29:13.772Z,40.20
2018-07-01T06:31:42.207Z,39.20
2018-07-01T06:34:10.561Z,39.20
2018-07-01T06:36:39.306Z,39.10
2018-07-01T06:39:07.627Z,39.00
2018-07-01T06:41:35.990Z,38.60
2018-07-01T06:44:04.330Z,38.30
2018-07-01T06:46:32.660Z,38.60
2018-07-01T06:49:06.739Z,38.30
2018-07-01T06:51:35.083Z,38.70
2018-07-01T06:54:03.394Z,39.00
2018-07-01T06:56:31.796Z,38.10
2018-07-01T06:59:00.068Z,38.50
2018-07-01T07:01:28.405Z,37.70
2018-07-01T07:03:56.718Z,37.10
2018-07-01T07:06:25.061Z,37.50
2018-07-01T07:08:53.371Z,37.70
2018-07-01T07:11:21.721Z,37.10
2018-07-01T07:13:50.064Z,36.50
2018-07-01T07:16:18.457Z,36.40
2018-07-01T07:18:46.744Z,37.30
2018-07-01T07:21:15.177Z,37.60
2018-07-01T07:23:43.657Z,36.80
2018-07-01T07:26:12.157Z,36.20
2018-07-01T07:28:39.746Z,36.20
2018-07-01T07:31:07.317Z,36.20
2018-07-01T07:33:35.641Z,36.80
2018-07-01T07:36:03.983Z,36.50
2018-07-01T07:38:32.292Z,36.30
2018-07-01T07:41:00.629Z,35.80
2018-07-01T07:43:28.952Z,35.20
2018-07-01T07:45:58.027Z,35.60
2018-07-01T07:48:26.456Z,34.50
2018-07-01T07:50:54.788Z,34.40
2018-07-01T07:53:23.285Z,35.10
2018-07-01T07:55:50.960Z,35.10
2018-07-01T07:58:19.483Z,34.90
2018-07-01T08:00:48.837Z,35.10
2018-07-01T08:03:17.386Z,35.20
2018-07-01T08:05:45.858Z,35.10
2018-07-01T08:08:14.443Z,35.40
2018-07-01T08:10:42.857Z,35.90
2018-07-01T08:13:13.767Z,35.20
2018-07-01T08:15:43.269Z,34.60
2018-07-01T08:18:12.174Z,35.60
2018-07-01T08:20:40.529Z,35.50
2018-07-01T08:23:09.192Z,34.40
2018-07-01T08:25:37.554Z,34.70
2018-07-01T08:28:06.102Z,34.60
2018-07-01T08:30:34.526Z,34.80
2018-07-01T08:33:03.008Z,34.90
2018-07-01T08:35:31.337Z,33.90
2018-07-01T08:37:59.781Z,34.30
2018-07-01T08:40:28.595Z,34.50
2018-07-01T08:42:56.949Z,34.80
2018-07-01T08:45:24.799Z,34.60
2018-07-01T08:47:53.199Z,34.80
2018-07-01T08:50:21.150Z,34.80
2018-07-01T08:52:49.659Z,34.20
2018-07-01T08:55:18.233Z,35.10
2018-07-01T08:57:47.801Z,34.50
2018-07-01T09:00:16.438Z,34.40
2018-07-01T09:02:44.917Z,33.90
2018-07-01T09:05:13.359Z,34.00
2018-07-01T09:07:41.786Z,33.60
2018-07-01T09:10:10.471Z,34.10
2018-07-01T09:12:38.801Z,33.80
2018-07-01T09:15:06.348Z,33.80
2018-07-01T09:17:34.672Z,33.40
2018-07-01T09:20:02.985Z,33.30
2018-07-01T09:22:31.392Z,33.50
2018-07-01T09:24:59.697Z,33.50
2018-07-01T09:27:28.037Z,33.00
2018-07-01T09:29:56.359Z,33.20
2018-07-01T09:32:24.717Z,32.20
2018-07-01T09:34:53.044Z,33.70
2018-07-01T09:37:21.394Z,34.50
2018-07-01T09:39:49.705Z,33.60
2018-07-01T09:42:18.052Z,31.90
2018-07-01T09:44:46.439Z,32.10
2018-07-01T09:47:14.865Z,31.70
2018-07-01T09:49:43.382Z,31.70
2018-07-01T09:52:11.748Z,32.60
2018-07-01T09:54:40.149Z,32.00
2018-07-01T09:57:08.500Z,31.50
2018-07-01T09:59:36.818Z,31.30
2018-07-01T10:02:05.163Z,30.90
2018-07-01T10:04:33.481Z,30.20
2018-07-01T10:07:01.827Z,30.60
2018-07-01T10:09:29.385Z,30.70
2018-07-01T10:11:57.741Z,30.90
2018-07-01T10:14:26.066Z,31.50
2018-07-01T10:16:54.383Z,31.00
2018-07-01T10:19:22.720Z,30.50
2018-07-01T10:21:51.036Z,31.00
2018-07-01T10:24:19.372Z,30.90
2018-07-01T10:26:46.917Z,30.90
2018-07-01T10:29:15.270Z,30.80
2018-07-01T10:31:43.582Z,30.20
2018-07-01T10:34:11.923Z,30.30
2018-07-01T10:36:41.204Z,30.90
2018-07-01T10:39:09.563Z,30.40
2018-07-01T10:41:37.879Z,30.80
2018-07-01T10:44:06.214Z,30.80
2018-07-01T10:46:34.529Z,30.20
2018-07-01T10:49:02.868Z,30.30
2018-07-01T10:51:30.467Z,30.30
2018-07-01T10:53:58.771Z,29.50
2018-07-01T10:56:27.089Z,29.40
2018-07-01T10:58:55.419Z,28.40
2018-07-01T11:01:23.727Z,29.30
2018-07-01T11:03:52.064Z,29.00
2018-07-01T11:06:20.392Z,29.30
2018-07-01T11:08:48.740Z,29.10
2018-07-01T11:11:16.297Z,29.10
2018-07-01T11:13:44.637Z,29.10
2018-07-01T11:16:12.956Z,28.30
2018-07-01T11:18:41.293Z,28.80
2018-07-01T11:21:09.611Z,29.00
2018-07-01T11:23:37.955Z,29.80
2018-07-01T11:26:06.281Z,29.30
2018-07-01T11:28:34.604Z,29.30
2018-07-01T11:31:02.923Z,29.00
2018-07-01T11:33:31.268Z,28.50
2018-07-01T11:35:59.586Z,29.20
2018-07-01T11:38:27.946Z,29.00
2018-07-01T11:40:56.294Z,28.20
2018-07-01T11:43:24.633Z,27.70
2018-07-01T11:45:52.945Z,27.40
2018-07-01T11:48:20.540Z,27.40
2018-07-01T11:50:48.865Z,27.70
2018-07-01T11:53:17.216Z,27.30
2018-07-01T11:55:45.533Z,27.50
2018-07-01T11:58:13.865Z,27.90
2018-07-01T12:00:42.181Z,27.60
2018-07-01T12:03:10.518Z,27.90
2018-07-01T12:05:38.825Z,27.00
2018-07-01T12:08:07.175Z,27.70
2018-07-01T12:10:35.501Z,27.50
2018-07-01T12:13:03.813Z,27.50
2018-07-01T12:15:32.167Z,27.70
2018-07-01T12:18:00.477Z,27.20
2018-07-01T12:20:28.810Z,27.70
2018-07-01T12:22:57.144Z,27.10
2018-07-01T12:25:25.479Z,27.10
2018-07-01T12:27:53.792Z,26.60
2018-07-01T12:30:22.160Z,26.50
2018-07-01T12:32:50.469Z,26.20
2018-07-01T12:35:18.808Z,26.40
2018-07-01T12:37:47.145Z,26.70
2018-07-01T12:40:15.482Z,26.40
2018-07-01T12:42:43.844Z,27.30
2018-07-01T12:45:12.180Z,26.80
2018-07-01T12:47:40.543Z,27.80
2018-07-01T12:50:08.867Z,26.10
2018-07-01T12:52:37.218Z,25.50
2018-07-01T12:55:05.576Z,26.20
2018-07-01T12:57:33.901Z,26.90
2018-07-01T13:00:02.249Z,27.70
2018-07-01T13:02:30.612Z,26.40
2018-07-01T13:04:58.942Z,26.80
2018-07-01T13:07:27.253Z,26.00
2018-07-01T13:09:55.599Z,25.20
2018-07-01T13:12:23.921Z,25.20
2018-07-01T13:14:52.257Z,25.70
2018-07-01T13:17:20.581Z,25.10
2018-07-01T13:19:49.032Z,25.50
2018-07-01T13:22:17.543Z,25.10
2018-07-01T13:24:46.003Z,25.30
2018-07-01T13:27:14.392Z,25.40
2018-07-01T13:29:42.829Z,26.00
2018-07-01T13:32:11.548Z,24.90
2018-07-01T13:34:39.972Z,25.20
2018-07-01T13:37:08.295Z,24.80
2018-07-01T13:39:36.633Z,24.30
2018-07-01T13:42:04.947Z,24.40
2018-07-01T13:44:33.294Z,25.30
2018-07-01T13:47:01.636Z,24.00
2018-07-01T13:49:29.219Z,24.00
2018-07-01T13:51:57.540Z,24.30
2018-07-01T13:54:25.878Z,24.30
2018-07-01T13:56:54.283Z,24.70
2018-07-01T13:59:22.556Z,24.10
2018-07-01T14:01:50.869Z,24.40
2018-07-01T14:04:19.193Z,24.60
2018-07-01T14:06:47.540Z,24.10
2018-07-01T14:09:15.858Z,24.50
2018-07-01T14:11:44.462Z,24.20
2018-07-01T14:14:12.894Z,25.10
2018-07-01T14:16:41.350Z,25.30
2018-07-01T14:19:09.723Z,24.30
2018-07-01T14:21:38.088Z,24.60
2018-07-01T14:24:06.411Z,25.00
2018-07-01T14:26:34.762Z,24.00
2018-07-01T14:29:03.078Z,24.30
2018-07-01T14:31:31.410Z,25.00
2018-07-01T14:33:59.730Z,25.20
2018-07-01T14:36:28.101Z,25.30
2018-07-01T14:38:56.412Z,24.70
2018-07-01T14:41:24.749Z,25.60
2018-07-01T14:43:53.072Z,25.00
2018-07-01T14:46:21.438Z,24.70
2018-07-01T14:48:49.759Z,23.80
2018-07-01T14:51:18.091Z,24.10
2018-07-01T14:53:46.413Z,24.50
2018-07-01T14:56:14.769Z,24.60
2018-07-01T14:58:43.248Z,24.80
2018-07-01T15:01:11.757Z,24.70
2018-07-01T15:03:40.195Z,25.60
2018-07-01T15:06:08.681Z,25.70
2018-07-01T15:08:36.988Z,25.00
2018-07-01T15:11:05.363Z,24.50
2018-07-01T15:13:33.753Z,24.10
2018-07-01T15:16:02.107Z,24.50
2018-07-01T15:18:30.470Z,24.40
2018-07-01T15:20:58.915Z,25.30
2018-07-01T15:23:27.246Z,24.90
2018-07-01T15:25:55.610Z,24.80
2018-07-01T15:28:23.925Z,25.60
2018-07-01T15:30:52.263Z,25.00
2018-07-01T15:33:20.576Z,24.80
2018-07-01T15:35:48.908Z,24.80
2018-07-01T15:38:17.217Z,24.60
2018-07-01T15:40:45.585Z,24.80
2018-07-01T15:43:13.964Z,24.90
2018-07-01T15:45:42.428Z,24.20
2018-07-01T15:48:10.786Z,24.80
2018-07-01T15:50:39.164Z,24.30
2018-07-01T15:53:07.556Z,24.30
2018-07-01T15:55:35.893Z,24.80
2018-07-01T15:58:04.210Z,25.10
2018-07-01T16:00:32.566Z,24.90
2018-07-01T16:03:00.893Z,25.50
2018-07-01T16:05:29.235Z,24.20
2018-07-01T16:07:57.545Z,24.50
2018-07-01T16:10:25.856Z,25.10
2018-07-01T16:12:54.208Z,25.30
2018-07-01T16:15:22.527Z,24.60
2018-07-01T16:17:50.920Z,24.90
2018-07-01T16:20:19.188Z,24.90
2018-07-01T16:22:47.556Z,24.70
2018-07-01T16:25:15.966Z,25.20
2018-07-01T16:27:44.354Z,25.50
2018-07-01T16:30:12.761Z,25.10
2018-07-01T16:32:42.039Z,25.40
2018-07-01T16:35:10.421Z,25.80
2018-07-01T16:37:38.769Z,25.70
2018-07-01T16:40:07.079Z,25.70
2018-07-01T16:42:35.417Z,25.90
2018-07-01T16:45:03.729Z,26.20
2018-07-01T16:47:32.062Z,26.60
2018-07-01T16:50:00.370Z,25.80
2018-07-01T16:52:28.776Z,25.70
2018-07-01T16:54:57.056Z,26.10
2018-07-01T16:57:25.398Z,26.10
2018-07-01T16:59:55.705Z,26.00
2018-07-01T17:02:24.036Z,26.50
2018-07-01T17:04:52.344Z,26.30
2018-07-01T17:07:19.916Z,26.30
2018-07-01T17:09:48.261Z,25.10
2018-07-01T17:12:17.003Z,24.50
2018-07-01T17:14:45.384Z,23.80
2018-07-01T17:17:13.846Z,23.20
2018-07-01T17:19:42.314Z,22.00
2018-07-01T17:22:10.797Z,21.60
2018-07-01T17:24:39.113Z,20.80
2018-07-01T17:27:06.681Z,20.80
2018-07-01T17:29:35.002Z,20.00
2018-07-01T17:32:03.415Z,19.80
2018-07-01T17:34:31.734Z,19.50
2018-07-01T17:37:00.080Z,19.60
2018-07-01T17:39:28.410Z,19.50
2018-07-01T17:41:56.741Z,19.20
2018-07-01T17:44:25.057Z,19.00
2018-07-01T17:46:53.398Z,19.20
2018-07-01T17:49:20.945Z,19.10
2018-07-01T17:51:49.278Z,18.60
2018-07-01T17:54:17.617Z,18.00
2018-07-01T17:56:46.086Z,18.20
2018-07-01T17:59:14.531Z,18.50
2018-07-01T18:01:42.963Z,18.50
2018-07-01T18:04:11.467Z,18.90
2018-07-01T18:06:39.920Z,18.80
2018-07-01T18:09:08.295Z,19.00
2018-07-01T18:11:36.647Z,18.80
2018-07-01T18:14:04.978Z,18.40
2018-07-01T18:16:33.389Z,18.50
2018-07-01T18:19:01.661Z,18.40
2018-07-01T18:21:48.144Z,18.60
2018-07-01T18:24:27.538Z,18.80
2018-07-01T18:26:26.748Z,18.90
2018-07-01T18:29:05.473Z,18.80
2018-07-01T18:31:22.799Z,18.80
2018-07-01T18:33:51.143Z,18.80
2018-07-01T18:36:19.609Z,18.80
2018-07-01T18:38:47.994Z,19.60
2018-07-01T18:41:16.281Z,21.10
2018-07-01T18:43:44.661Z,22.80
2018-07-01T18:46:13.005Z,24.30
2018-07-01T18:48:41.382Z,25.60
2018-07-01T18:51:09.778Z,26.80
2018-07-01T18:53:38.170Z,27.50
2018-07-01T18:56:06.561Z,28.30
2018-07-01T18:58:34.902Z,29.10
2018-07-01T19:01:03.310Z,29.30
2018-07-01T19:03:31.658Z,30.00
2018-07-01T19:05:59.968Z,30.30
2018-07-01T19:08:28.344Z,30.90
2018-07-01T19:10:56.661Z,31.80
2018-07-01T19:13:25.299Z,33.10
2018-07-01T19:15:53.635Z,33.80
2018-07-01T19:18:22.001Z,33.70
2018-07-01T19:20:50.465Z,33.80
2018-07-01T19:23:18.817Z,34.10
2018-07-01T19:25:47.250Z,34.40
2018-07-01T19:28:15.646Z,34.90
2018-07-01T19:30:44.132Z,36.40
2018-07-01T19:33:12.591Z,37.40
2018-07-01T19:35:41.176Z,37.50
2018-07-01T19:38:09.502Z,37.20
2018-07-01T19:40:37.931Z,37.50
2018-07-01T19:43:06.377Z,37.90
2018-07-01T19:45:33.848Z,37.90
2018-07-01T19:48:02.239Z,40.30
2018-07-01T19:50:30.619Z,40.80
2018-07-01T19:52:59.096Z,41.30
2018-07-01T19:55:27.416Z,41.40
2018-07-01T19:57:55.840Z,41.60
2018-07-01T20:00:24.199Z,42.20
2018-07-01T20:02:52.520Z,42.30
2018-07-01T20:05:20.848Z,43.00
2018-07-01T20:07:49.173Z,43.00
2018-07-01T20:10:17.509Z,42.70
2018-07-01T20:12:45.955Z,43.30
2018-07-01T20:15:14.337Z,43.70
2018-07-01T20:17:42.806Z,44.50
2018-07-01T20:20:11.365Z,45.00
2018-07-01T20:22:39.701Z,45.10
2018-07-01T20:25:08.103Z,45.50
2018-07-01T20:27:36.414Z,45.40
2018-07-01T20:30:04.744Z,45.80
2018-07-01T20:32:33.063Z,46.20
2018-07-01T20:35:01.409Z,46.20
2018-07-01T20:37:29.723Z,46.40
2018-07-01T20:39:57.296Z,45.80
2018-07-01T20:42:25.616Z,46.10
2018-07-01T20:44:53.949Z,46.20
2018-07-01T20:47:22.255Z,46.20
2018-07-01T20:49:50.618Z,46.30
2018-07-01T20:52:19.003Z,46.30
2018-07-01T20:54:46.638Z,46.30
2018-07-01T20:57:15.025Z,46.90
2018-07-01T20:59:43.482Z,47.30
2018-07-01T21:02:11.897Z,47.50
2018-07-01T21:04:40.363Z,48.00
2018-07-01T21:07:08.701Z,48.20
2018-07-01T21:09:36.271Z,48.20
2018-07-01T21:12:04.636Z,48.90
2018-07-01T21:14:32.968Z,49.10
2018-07-01T21:17:01.282Z,49.30
2018-07-01T21:19:29.688Z,49.60
2018-07-01T21:21:57.970Z,49.80
2018-07-01T21:24:26.303Z,49.80
2018-07-01T21:26:54.621Z,50.20
2018-07-01T21:29:22.972Z,50.20
2018-07-01T21:31:51.282Z,50.30
2018-07-01T21:34:19.624Z,50.60
2018-07-01T21:36:48.082Z,50.90
2018-07-01T21:39:16.549Z,51.50
2018-07-01T21:41:45.081Z,51.70
2018-07-01T21:44:13.610Z,52.00
2018-07-01T21:46:42.085Z,52.20
2018-07-01T21:49:10.572Z,52.40
2018-07-01T21:51:38.901Z,52.50
2018-07-01T21:54:07.255Z,52.70
2018-07-01T21:56:35.596Z,53.00
2018-07-01T21:59:03.948Z,53.30
2018-07-01T22:01:32.282Z,53.60
2018-07-01T22:04:00.669Z,53.90
2018-07-01T22:06:29.009Z,54.00
2018-07-01T22:08:57.358Z,54.00
2018-07-01T22:11:50.302Z,55.10
2018-07-01T22:14:18.726Z,54.50
2018-07-01T22:16:47.119Z,54.80
2018-07-01T22:19:15.609Z,54.90
2018-07-01T22:21:44.052Z,55.20
2018-07-01T22:24:12.562Z,55.40
2018-07-01T22:26:40.980Z,56.10
2018-07-01T22:29:09.975Z,55.90
2018-07-01T22:31:38.331Z,56.20
2018-07-01T22:34:06.660Z,56.20
2018-07-01T22:36:35.007Z,56.40
2018-07-01T22:39:03.349Z,56.40
2018-07-01T22:41:31.709Z,56.40
2018-07-01T22:44:00.050Z,56.60
2018-07-01T22:46:28.402Z,56.70
2018-07-01T22:48:56.738Z,56.80
2018-07-01T22:51:25.091Z,56.90
2018-07-01T22:53:53.427Z,57.10
2018-07-01T22:56:21.783Z,57.20
2018-07-01T22:58:50.116Z,57.40
2018-07-01T23:01:18.505Z,57.40
2018-07-01T23:03:46.872Z,57.50
2018-07-01T23:06:15.411Z,57.80
2018-07-01T23:08:43.805Z,57.90
2018-07-01T23:11:12.338Z,58.00
2018-07-01T23:13:40.753Z,57.90
2018-07-01T23:16:09.124Z,57.80
2018-07-01T23:18:37.453Z,58.00
2018-07-01T23:21:05.824Z,58.20
2018-07-01T23:23:34.168Z,58.10
2018-07-01T23:26:02.525Z,58.30
2018-07-01T23:28:30.085Z,58.30
2018-07-01T23:30:58.454Z,58.80
2018-07-01T23:33:26.800Z,58.80
2018-07-01T23:35:55.155Z,59.10
2018-07-01T23:38:23.493Z,59.50
2018-07-01T23:40:51.854Z,59.50
2018-07-01T23:43:20.184Z,59.80
2018-07-01T23:45:48.542Z,60.00
2018-07-01T23:48:16.991Z,60.40
2018-07-01T23:50:45.540Z,60.60
2018-07-01T23:53:14.070Z,60.80
2018-07-01T23:55:42.705Z,61.10
2018-07-01T23:58:11.201Z,61.40
